sensor_id;sensor_type;location;lat;lon;timestamp;P1;durP1;ratioP1;P2;durP2;ratioP2
58414;SDS011;44210;42.706;18.344;2022-11-20T00:03:32;12.98;;;2.65;;
58414;SDS011;44210;42.706;18.344;2022-11-20T00:06:02;13.00;;;2.63;;
58414;SDS011;44210;42.706;18.344;2022-11-20T00:08:28;18.17;;;3.00;;
58414;SDS011;44210;42.706;18.344;2022-11-20T00:10:54;10.73;;;2.50;;
58414;SDS011;44210;42.706;18.344;2022-11-20T00:13:20;12.98;;;2.45;;
58414;SDS011;44210;42.706;18.344;2022-11-20T00:15:46;11.95;;;2.50;;
58414;SDS011;44210;42.706;18.344;2022-11-20T00:18:13;16.50;;;2.92;;
58414;SDS011;44210;42.706;18.344;2022-11-20T00:20:39;14.00;;;3.05;;
58414;SDS011;44210;42.706;18.344;2022-11-20T00:23:05;12.75;;;3.97;;
58414;SDS011;44210;42.706;18.344;2022-11-20T00:25:33;10.05;;;2.83;;
58414;SDS011;44210;42.706;18.344;2022-11-20T00:28:00;12.35;;;2.53;;
58414;SDS011;44210;42.706;18.344;2022-11-20T00:30:26;12.15;;;2.90;;
58414;SDS011;44210;42.706;18.344;2022-11-20T00:32:52;11.10;;;2.65;;
58414;SDS011;44210;42.706;18.344;2022-11-20T00:35:18;20.58;;;3.88;;
58414;SDS011;44210;42.706;18.344;2022-11-20T00:37:44;17.15;;;3.63;;
58414;SDS011;44210;42.706;18.344;2022-11-20T00:40:10;11.23;;;2.42;;
58414;SDS011;44210;42.706;18.344;2022-11-20T00:42:36;17.85;;;3.17;;
58414;SDS011;44210;42.706;18.344;2022-11-20T00:45:02;15.65;;;3.13;;
58414;SDS011;44210;42.706;18.344;2022-11-20T00:47:28;17.42;;;3.50;;
58414;SDS011;44210;42.706;18.344;2022-11-20T00:49:55;14.63;;;3.10;;
58414;SDS011;44210;42.706;18.344;2022-11-20T00:52:21;15.63;;;3.00;;
58414;SDS011;44210;42.706;18.344;2022-11-20T00:54:46;12.07;;;2.65;;
58414;SDS011;44210;42.706;18.344;2022-11-20T00:57:12;16.13;;;3.40;;
58414;SDS011;44210;42.706;18.344;2022-11-20T00:59:39;17.00;;;3.00;;
58414;SDS011;44210;42.706;18.344;2022-11-20T01:02:05;10.85;;;2.78;;
58414;SDS011;44210;42.706;18.344;2022-11-20T01:04:31;18.95;;;3.20;;
58414;SDS011;44210;42.706;18.344;2022-11-20T01:06:57;12.30;;;3.45;;
58414;SDS011;44210;42.706;18.344;2022-11-20T01:09:23;11.73;;;3.50;;
58414;SDS011;44210;42.706;18.344;2022-11-20T01:11:49;16.40;;;3.97;;
58414;SDS011;44210;42.706;18.344;2022-11-20T01:14:16;15.43;;;4.97;;
58414;SDS011;44210;42.706;18.344;2022-11-20T01:16:44;12.73;;;3.45;;
58414;SDS011;44210;42.706;18.344;2022-11-20T01:19:11;14.57;;;3.15;;
58414;SDS011;44210;42.706;18.344;2022-11-20T01:21:38;9.15;;;2.85;;
58414;SDS011;44210;42.706;18.344;2022-11-20T01:24:05;15.38;;;3.08;;
58414;SDS011;44210;42.706;18.344;2022-11-20T01:26:33;15.20;;;4.25;;
58414;SDS011;44210;42.706;18.344;2022-11-20T01:28:59;13.95;;;4.10;;
58414;SDS011;44210;42.706;18.344;2022-11-20T01:31:36;15.25;;;3.90;;
58414;SDS011;44210;42.706;18.344;2022-11-20T01:34:03;11.57;;;2.85;;
58414;SDS011;44210;42.706;18.344;2022-11-20T01:36:30;14.02;;;3.85;;
58414;SDS011;44210;42.706;18.344;2022-11-20T01:38:57;14.32;;;3.50;;
58414;SDS011;44210;42.706;18.344;2022-11-20T01:41:24;11.45;;;3.28;;
58414;SDS011;44210;42.706;18.344;2022-11-20T01:44:10;15.48;;;3.25;;
58414;SDS011;44210;42.706;18.344;2022-11-20T01:46:37;9.43;;;2.35;;
58414;SDS011;44210;42.706;18.344;2022-11-20T01:49:05;18.88;;;4.50;;
58414;SDS011;44210;42.706;18.344;2022-11-20T01:51:38;10.20;;;4.07;;
58414;SDS011;44210;42.706;18.344;2022-11-20T01:54:06;12.15;;;4.25;;
58414;SDS011;44210;42.706;18.344;2022-11-20T01:56:34;12.43;;;3.80;;
58414;SDS011;44210;42.706;18.344;2022-11-20T01:59:03;14.82;;;5.40;;
58414;SDS011;44210;42.706;18.344;2022-11-20T02:01:30;16.95;;;4.85;;
58414;SDS011;44210;42.706;18.344;2022-11-20T02:03:56;25.88;;;4.57;;
58414;SDS011;44210;42.706;18.344;2022-11-20T02:08:48;15.23;;;3.40;;
58414;SDS011;44210;42.706;18.344;2022-11-20T02:11:14;16.10;;;3.55;;
58414;SDS011;44210;42.706;18.344;2022-11-20T02:13:40;20.92;;;3.22;;
58414;SDS011;44210;42.706;18.344;2022-11-20T02:18:38;16.48;;;4.22;;
58414;SDS011;44210;42.706;18.344;2022-11-20T02:21:28;15.13;;;3.22;;
58414;SDS011;44210;42.706;18.344;2022-11-20T02:23:53;18.42;;;2.85;;
58414;SDS011;44210;42.706;18.344;2022-11-20T02:26:19;16.23;;;3.90;;
58414;SDS011;44210;42.706;18.344;2022-11-20T02:28:46;22.63;;;4.78;;
58414;SDS011;44210;42.706;18.344;2022-11-20T02:31:12;15.15;;;3.42;;
58414;SDS011;44210;42.706;18.344;2022-11-20T02:33:38;15.00;;;3.85;;
58414;SDS011;44210;42.706;18.344;2022-11-20T02:36:04;8.68;;;2.97;;
58414;SDS011;44210;42.706;18.344;2022-11-20T02:38:31;12.00;;;3.85;;
58414;SDS011;44210;42.706;18.344;2022-11-20T02:40:57;17.92;;;3.88;;
58414;SDS011;44210;42.706;18.344;2022-11-20T02:43:23;11.43;;;2.97;;
58414;SDS011;44210;42.706;18.344;2022-11-20T02:45:49;14.10;;;3.00;;
58414;SDS011;44210;42.706;18.344;2022-11-20T02:48:15;10.32;;;2.85;;
58414;SDS011;44210;42.706;18.344;2022-11-20T02:50:41;11.75;;;3.03;;
58414;SDS011;44210;42.706;18.344;2022-11-20T02:53:07;8.95;;;2.72;;
58414;SDS011;44210;42.706;18.344;2022-11-20T02:55:33;14.23;;;3.00;;
58414;SDS011;44210;42.706;18.344;2022-11-20T02:57:59;13.75;;;3.38;;
58414;SDS011;44210;42.706;18.344;2022-11-20T03:00:25;13.75;;;3.67;;
58414;SDS011;44210;42.706;18.344;2022-11-20T03:02:51;12.73;;;3.65;;
58414;SDS011;44210;42.706;18.344;2022-11-20T03:05:17;17.70;;;4.78;;
58414;SDS011;44210;42.706;18.344;2022-11-20T03:07:43;10.13;;;3.03;;
58414;SDS011;44210;42.706;18.344;2022-11-20T03:10:10;13.98;;;3.38;;
58414;SDS011;44210;42.706;18.344;2022-11-20T03:12:36;13.93;;;3.38;;
58414;SDS011;44210;42.706;18.344;2022-11-20T03:15:02;12.45;;;3.38;;
58414;SDS011;44210;42.706;18.344;2022-11-20T03:17:28;16.58;;;3.45;;
58414;SDS011;44210;42.706;18.344;2022-11-20T03:19:55;9.55;;;2.92;;
58414;SDS011;44210;42.706;18.344;2022-11-20T03:22:21;7.82;;;2.50;;
58414;SDS011;44210;42.706;18.344;2022-11-20T03:24:47;10.75;;;2.70;;
58414;SDS011;44210;42.706;18.344;2022-11-20T03:27:13;9.93;;;2.60;;
58414;SDS011;44210;42.706;18.344;2022-11-20T03:29:39;13.20;;;3.70;;
58414;SDS011;44210;42.706;18.344;2022-11-20T03:32:05;11.18;;;2.58;;
58414;SDS011;44210;42.706;18.344;2022-11-20T03:34:31;11.98;;;3.03;;
58414;SDS011;44210;42.706;18.344;2022-11-20T03:36:57;15.70;;;3.15;;
58414;SDS011;44210;42.706;18.344;2022-11-20T03:39:23;15.15;;;2.90;;
58414;SDS011;44210;42.706;18.344;2022-11-20T03:41:49;14.35;;;2.58;;
58414;SDS011;44210;42.706;18.344;2022-11-20T03:44:15;10.70;;;2.85;;
58414;SDS011;44210;42.706;18.344;2022-11-20T03:46:41;15.60;;;3.40;;
58414;SDS011;44210;42.706;18.344;2022-11-20T03:49:07;14.90;;;3.13;;
58414;SDS011;44210;42.706;18.344;2022-11-20T03:51:35;11.05;;;3.25;;
58414;SDS011;44210;42.706;18.344;2022-11-20T03:54:03;11.63;;;2.67;;
58414;SDS011;44210;42.706;18.344;2022-11-20T03:56:30;12.43;;;2.92;;
58414;SDS011;44210;42.706;18.344;2022-11-20T03:58:57;9.50;;;2.88;;
58414;SDS011;44210;42.706;18.344;2022-11-20T04:01:27;17.88;;;3.38;;
58414;SDS011;44210;42.706;18.344;2022-11-20T04:03:54;14.02;;;2.60;;
58414;SDS011;44210;42.706;18.344;2022-11-20T04:06:21;16.63;;;3.22;;
58414;SDS011;44210;42.706;18.344;2022-11-20T04:08:48;13.77;;;3.05;;
58414;SDS011;44210;42.706;18.344;2022-11-20T04:11:15;19.85;;;3.80;;
58414;SDS011;44210;42.706;18.344;2022-11-20T04:13:42;15.07;;;3.88;;
58414;SDS011;44210;42.706;18.344;2022-11-20T04:16:08;13.85;;;3.90;;
58414;SDS011;44210;42.706;18.344;2022-11-20T04:18:35;18.52;;;3.35;;
58414;SDS011;44210;42.706;18.344;2022-11-20T04:21:01;14.68;;;3.25;;
58414;SDS011;44210;42.706;18.344;2022-11-20T04:23:28;15.48;;;3.38;;
58414;SDS011;44210;42.706;18.344;2022-11-20T04:25:54;12.65;;;4.03;;
58414;SDS011;44210;42.706;18.344;2022-11-20T04:28:20;12.90;;;3.10;;
58414;SDS011;44210;42.706;18.344;2022-11-20T04:30:46;8.90;;;3.13;;
58414;SDS011;44210;42.706;18.344;2022-11-20T04:33:12;13.95;;;3.28;;
58414;SDS011;44210;42.706;18.344;2022-11-20T04:35:38;16.73;;;3.65;;
58414;SDS011;44210;42.706;18.344;2022-11-20T04:38:04;20.67;;;3.35;;
58414;SDS011;44210;42.706;18.344;2022-11-20T04:40:30;17.52;;;4.38;;
58414;SDS011;44210;42.706;18.344;2022-11-20T04:42:56;20.95;;;4.28;;
58414;SDS011;44210;42.706;18.344;2022-11-20T04:45:22;17.55;;;3.50;;
58414;SDS011;44210;42.706;18.344;2022-11-20T04:47:49;18.00;;;3.15;;
58414;SDS011;44210;42.706;18.344;2022-11-20T04:50:15;16.27;;;3.53;;
58414;SDS011;44210;42.706;18.344;2022-11-20T04:52:41;11.65;;;3.38;;
58414;SDS011;44210;42.706;18.344;2022-11-20T04:55:07;16.83;;;3.47;;
58414;SDS011;44210;42.706;18.344;2022-11-20T04:57:33;15.00;;;3.70;;
58414;SDS011;44210;42.706;18.344;2022-11-20T04:59:59;13.90;;;3.15;;
58414;SDS011;44210;42.706;18.344;2022-11-20T05:02:25;13.85;;;3.75;;
58414;SDS011;44210;42.706;18.344;2022-11-20T05:04:51;21.55;;;4.13;;
58414;SDS011;44210;42.706;18.344;2022-11-20T05:07:17;16.98;;;3.72;;
58414;SDS011;44210;42.706;18.344;2022-11-20T05:09:43;17.00;;;4.43;;
58414;SDS011;44210;42.706;18.344;2022-11-20T05:12:10;17.70;;;3.97;;
58414;SDS011;44210;42.706;18.344;2022-11-20T05:14:36;25.35;;;4.43;;
58414;SDS011;44210;42.706;18.344;2022-11-20T05:17:02;17.13;;;3.50;;
58414;SDS011;44210;42.706;18.344;2022-11-20T05:19:28;22.50;;;4.50;;
58414;SDS011;44210;42.706;18.344;2022-11-20T05:21:54;20.27;;;3.58;;
58414;SDS011;44210;42.706;18.344;2022-11-20T05:24:20;15.30;;;3.83;;
58414;SDS011;44210;42.706;18.344;2022-11-20T05:26:46;21.15;;;4.40;;
58414;SDS011;44210;42.706;18.344;2022-11-20T05:29:12;22.33;;;3.65;;
58414;SDS011;44210;42.706;18.344;2022-11-20T05:31:38;11.50;;;3.58;;
58414;SDS011;44210;42.706;18.344;2022-11-20T05:34:05;19.17;;;3.50;;
58414;SDS011;44210;42.706;18.344;2022-11-20T05:36:31;12.07;;;3.25;;
58414;SDS011;44210;42.706;18.344;2022-11-20T05:38:57;19.25;;;4.13;;
58414;SDS011;44210;42.706;18.344;2022-11-20T05:41:23;14.07;;;2.90;;
58414;SDS011;44210;42.706;18.344;2022-11-20T05:43:50;11.32;;;3.17;;
58414;SDS011;44210;42.706;18.344;2022-11-20T05:46:18;12.57;;;2.60;;
58414;SDS011;44210;42.706;18.344;2022-11-20T05:48:44;16.52;;;2.90;;
58414;SDS011;44210;42.706;18.344;2022-11-20T05:51:11;17.50;;;3.88;;
58414;SDS011;44210;42.706;18.344;2022-11-20T05:53:38;10.93;;;3.33;;
58414;SDS011;44210;42.706;18.344;2022-11-20T05:56:08;18.40;;;3.75;;
58414;SDS011;44210;42.706;18.344;2022-11-20T05:58:35;15.40;;;3.40;;
58414;SDS011;44210;42.706;18.344;2022-11-20T06:03:30;12.98;;;3.88;;
58414;SDS011;44210;42.706;18.344;2022-11-20T06:05:58;11.77;;;3.45;;
58414;SDS011;44210;42.706;18.344;2022-11-20T06:08:24;14.35;;;3.22;;
58414;SDS011;44210;42.706;18.344;2022-11-20T06:10:50;13.20;;;3.45;;
58414;SDS011;44210;42.706;18.344;2022-11-20T06:13:16;16.77;;;3.00;;
58414;SDS011;44210;42.706;18.344;2022-11-20T06:15:42;11.00;;;3.22;;
58414;SDS011;44210;42.706;18.344;2022-11-20T06:18:08;16.98;;;4.35;;
58414;SDS011;44210;42.706;18.344;2022-11-20T06:20:34;14.48;;;3.15;;
58414;SDS011;44210;42.706;18.344;2022-11-20T06:23:00;15.13;;;2.75;;
58414;SDS011;44210;42.706;18.344;2022-11-20T06:25:26;19.15;;;3.08;;
58414;SDS011;44210;42.706;18.344;2022-11-20T06:27:52;11.68;;;2.88;;
58414;SDS011;44210;42.706;18.344;2022-11-20T06:30:18;10.57;;;2.58;;
58414;SDS011;44210;42.706;18.344;2022-11-20T06:32:44;8.23;;;2.88;;
58414;SDS011;44210;42.706;18.344;2022-11-20T06:35:10;16.55;;;3.50;;
58414;SDS011;44210;42.706;18.344;2022-11-20T06:37:36;16.95;;;3.10;;
58414;SDS011;44210;42.706;18.344;2022-11-20T06:40:02;12.63;;;2.70;;
58414;SDS011;44210;42.706;18.344;2022-11-20T06:42:28;9.13;;;2.60;;
58414;SDS011;44210;42.706;18.344;2022-11-20T06:44:54;12.32;;;2.35;;
58414;SDS011;44210;42.706;18.344;2022-11-20T06:47:20;9.48;;;3.08;;
58414;SDS011;44210;42.706;18.344;2022-11-20T06:49:46;11.13;;;2.25;;
58414;SDS011;44210;42.706;18.344;2022-11-20T06:52:12;17.73;;;3.63;;
58414;SDS011;44210;42.706;18.344;2022-11-20T06:54:38;12.77;;;3.53;;
58414;SDS011;44210;42.706;18.344;2022-11-20T06:57:04;11.05;;;2.20;;
58414;SDS011;44210;42.706;18.344;2022-11-20T06:59:30;13.15;;;2.63;;
58414;SDS011;44210;42.706;18.344;2022-11-20T07:01:56;7.43;;;2.45;;
58414;SDS011;44210;42.706;18.344;2022-11-20T07:04:22;14.10;;;2.53;;
58414;SDS011;44210;42.706;18.344;2022-11-20T07:06:48;11.73;;;2.58;;
58414;SDS011;44210;42.706;18.344;2022-11-20T07:09:14;11.18;;;2.50;;
58414;SDS011;44210;42.706;18.344;2022-11-20T07:11:41;12.68;;;2.60;;
58414;SDS011;44210;42.706;18.344;2022-11-20T07:14:07;11.80;;;2.28;;
58414;SDS011;44210;42.706;18.344;2022-11-20T07:16:33;10.13;;;2.28;;
58414;SDS011;44210;42.706;18.344;2022-11-20T07:18:59;12.98;;;2.90;;
58414;SDS011;44210;42.706;18.344;2022-11-20T07:21:25;13.38;;;2.88;;
58414;SDS011;44210;42.706;18.344;2022-11-20T07:23:51;12.98;;;2.63;;
58414;SDS011;44210;42.706;18.344;2022-11-20T07:26:17;5.47;;;2.22;;
58414;SDS011;44210;42.706;18.344;2022-11-20T07:28:44;8.02;;;2.00;;
58414;SDS011;44210;42.706;18.344;2022-11-20T07:31:10;9.93;;;2.30;;
58414;SDS011;44210;42.706;18.344;2022-11-20T07:33:37;10.90;;;1.95;;
58414;SDS011;44210;42.706;18.344;2022-11-20T07:36:04;11.68;;;3.22;;
58414;SDS011;44210;42.706;18.344;2022-11-20T07:38:30;7.78;;;2.00;;
58414;SDS011;44210;42.706;18.344;2022-11-20T07:40:56;9.05;;;1.73;;
58414;SDS011;44210;42.706;18.344;2022-11-20T07:43:23;8.85;;;2.40;;
58414;SDS011;44210;42.706;18.344;2022-11-20T07:45:50;10.63;;;2.22;;
58414;SDS011;44210;42.706;18.344;2022-11-20T07:48:16;7.32;;;3.00;;
58414;SDS011;44210;42.706;18.344;2022-11-20T07:50:42;9.88;;;2.28;;
58414;SDS011;44210;42.706;18.344;2022-11-20T07:53:08;10.50;;;2.60;;
58414;SDS011;44210;42.706;18.344;2022-11-20T07:55:34;10.48;;;2.40;;
58414;SDS011;44210;42.706;18.344;2022-11-20T07:58:01;9.77;;;2.25;;
58414;SDS011;44210;42.706;18.344;2022-11-20T08:00:27;4.70;;;1.77;;
58414;SDS011;44210;42.706;18.344;2022-11-20T08:02:53;10.70;;;2.95;;
58414;SDS011;44210;42.706;18.344;2022-11-20T08:05:19;9.18;;;2.72;;
58414;SDS011;44210;42.706;18.344;2022-11-20T08:07:45;5.65;;;1.92;;
58414;SDS011;44210;42.706;18.344;2022-11-20T08:10:12;10.10;;;2.30;;
58414;SDS011;44210;42.706;18.344;2022-11-20T08:12:46;11.40;;;2.30;;
58414;SDS011;44210;42.706;18.344;2022-11-20T08:15:31;11.23;;;2.47;;
58414;SDS011;44210;42.706;18.344;2022-11-20T08:18:07;11.23;;;2.10;;
58414;SDS011;44210;42.706;18.344;2022-11-20T08:20:34;12.57;;;2.00;;
58414;SDS011;44210;42.706;18.344;2022-11-20T08:23:00;12.73;;;3.15;;
58414;SDS011;44210;42.706;18.344;2022-11-20T08:25:27;10.30;;;2.28;;
58414;SDS011;44210;42.706;18.344;2022-11-20T08:27:53;11.43;;;2.30;;
58414;SDS011;44210;42.706;18.344;2022-11-20T08:30:19;10.35;;;2.90;;
58414;SDS011;44210;42.706;18.344;2022-11-20T08:32:45;7.60;;;2.22;;
58414;SDS011;44210;42.706;18.344;2022-11-20T08:35:11;9.20;;;2.00;;
58414;SDS011;44210;42.706;18.344;2022-11-20T08:37:37;11.77;;;1.88;;
58414;SDS011;44210;42.706;18.344;2022-11-20T08:40:06;10.98;;;2.55;;
58414;SDS011;44210;42.706;18.344;2022-11-20T08:42:32;11.68;;;2.20;;
58414;SDS011;44210;42.706;18.344;2022-11-20T08:44:58;9.40;;;2.05;;
58414;SDS011;44210;42.706;18.344;2022-11-20T08:47:24;9.65;;;2.53;;
58414;SDS011;44210;42.706;18.344;2022-11-20T08:49:50;10.50;;;2.40;;
58414;SDS011;44210;42.706;18.344;2022-11-20T08:52:16;7.28;;;1.90;;
58414;SDS011;44210;42.706;18.344;2022-11-20T08:54:42;11.43;;;1.80;;
58414;SDS011;44210;42.706;18.344;2022-11-20T08:57:08;7.85;;;1.52;;
58414;SDS011;44210;42.706;18.344;2022-11-20T08:59:34;8.27;;;1.70;;
58414;SDS011;44210;42.706;18.344;2022-11-20T09:02:00;7.80;;;2.10;;
58414;SDS011;44210;42.706;18.344;2022-11-20T09:04:26;13.82;;;2.42;;
58414;SDS011;44210;42.706;18.344;2022-11-20T09:06:52;8.73;;;1.35;;
58414;SDS011;44210;42.706;18.344;2022-11-20T09:09:18;11.73;;;2.00;;
58414;SDS011;44210;42.706;18.344;2022-11-20T09:11:44;7.35;;;1.60;;
58414;SDS011;44210;42.706;18.344;2022-11-20T09:14:11;6.55;;;1.35;;
58414;SDS011;44210;42.706;18.344;2022-11-20T09:16:37;9.15;;;1.98;;
58414;SDS011;44210;42.706;18.344;2022-11-20T09:19:03;8.73;;;1.65;;
58414;SDS011;44210;42.706;18.344;2022-11-20T09:21:29;5.55;;;1.70;;
58414;SDS011;44210;42.706;18.344;2022-11-20T09:23:55;6.65;;;1.50;;
58414;SDS011;44210;42.706;18.344;2022-11-20T09:26:21;6.82;;;1.67;;
58414;SDS011;44210;42.706;18.344;2022-11-20T09:28:47;6.60;;;1.50;;
58414;SDS011;44210;42.706;18.344;2022-11-20T09:31:23;5.95;;;1.40;;
58414;SDS011;44210;42.706;18.344;2022-11-20T09:33:50;5.55;;;2.20;;
58414;SDS011;44210;42.706;18.344;2022-11-20T09:36:16;4.43;;;1.63;;
58414;SDS011;44210;42.706;18.344;2022-11-20T09:38:44;3.80;;;1.45;;
58414;SDS011;44210;42.706;18.344;2022-11-20T09:41:16;7.68;;;2.00;;
58414;SDS011;44210;42.706;18.344;2022-11-20T09:51:56;8.15;;;1.63;;
58414;SDS011;44210;42.706;18.344;2022-11-20T09:54:27;7.13;;;1.65;;
58414;SDS011;44210;42.706;18.344;2022-11-20T09:57:41;6.53;;;2.85;;
58414;SDS011;44210;42.706;18.344;2022-11-20T09:59:42;5.95;;;1.90;;
58414;SDS011;44210;42.706;18.344;2022-11-20T10:02:16;5.75;;;1.23;;
58414;SDS011;44210;42.706;18.344;2022-11-20T10:04:48;4.65;;;1.58;;
58414;SDS011;44210;42.706;18.344;2022-11-20T10:07:16;6.80;;;1.83;;
58414;SDS011;44210;42.706;18.344;2022-11-20T10:09:49;5.95;;;1.58;;
58414;SDS011;44210;42.706;18.344;2022-11-20T10:24:57;9.00;;;3.00;;
58414;SDS011;44210;42.706;18.344;2022-11-20T10:30:03;6.95;;;2.33;;
58414;SDS011;44210;42.706;18.344;2022-11-20T10:32:36;6.30;;;2.08;;
58414;SDS011;44210;42.706;18.344;2022-11-20T10:35:05;8.45;;;2.42;;
58414;SDS011;44210;42.706;18.344;2022-11-20T10:37:34;9.13;;;2.20;;
58414;SDS011;44210;42.706;18.344;2022-11-20T10:40:14;3.85;;;1.60;;
58414;SDS011;44210;42.706;18.344;2022-11-20T10:42:44;4.47;;;1.90;;
58414;SDS011;44210;42.706;18.344;2022-11-20T10:47:50;4.18;;;1.27;;
58414;SDS011;44210;42.706;18.344;2022-11-20T10:50:19;3.78;;;2.08;;
58414;SDS011;44210;42.706;18.344;2022-11-20T10:57:56;6.25;;;1.55;;
58414;SDS011;44210;42.706;18.344;2022-11-20T11:00:26;3.60;;;1.30;;
58414;SDS011;44210;42.706;18.344;2022-11-20T11:02:53;3.63;;;1.60;;
58414;SDS011;44210;42.706;18.344;2022-11-20T11:07:54;4.90;;;1.63;;
58414;SDS011;44210;42.706;18.344;2022-11-20T11:10:25;7.90;;;1.50;;
58414;SDS011;44210;42.706;18.344;2022-11-20T11:12:52;2.30;;;1.08;;
58414;SDS011;44210;42.706;18.344;2022-11-20T11:15:28;4.13;;;1.70;;
58414;SDS011;44210;42.706;18.344;2022-11-20T11:17:54;5.07;;;1.38;;
58414;SDS011;44210;42.706;18.344;2022-11-20T11:20:22;5.80;;;1.70;;
58414;SDS011;44210;42.706;18.344;2022-11-20T11:22:49;4.70;;;1.50;;
58414;SDS011;44210;42.706;18.344;2022-11-20T11:25:23;7.68;;;2.25;;
58414;SDS011;44210;42.706;18.344;2022-11-20T11:27:50;3.38;;;1.60;;
58414;SDS011;44210;42.706;18.344;2022-11-20T11:30:17;6.97;;;1.30;;
58414;SDS011;44210;42.706;18.344;2022-11-20T11:32:43;4.03;;;1.40;;
58414;SDS011;44210;42.706;18.344;2022-11-20T11:35:20;5.13;;;1.80;;
58414;SDS011;44210;42.706;18.344;2022-11-20T11:37:47;4.07;;;1.65;;
58414;SDS011;44210;42.706;18.344;2022-11-20T11:40:14;3.60;;;1.17;;
58414;SDS011;44210;42.706;18.344;2022-11-20T11:42:44;8.75;;;1.67;;
58414;SDS011;44210;42.706;18.344;2022-11-20T11:45:14;3.67;;;1.10;;
58414;SDS011;44210;42.706;18.344;2022-11-20T11:55:26;4.57;;;1.30;;
58414;SDS011;44210;42.706;18.344;2022-11-20T11:57:57;3.45;;;1.02;;
58414;SDS011;44210;42.706;18.344;2022-11-20T12:00:25;4.30;;;1.48;;
58414;SDS011;44210;42.706;18.344;2022-11-20T12:06:06;3.50;;;1.00;;
58414;SDS011;44210;42.706;18.344;2022-11-20T12:11:11;5.85;;;1.70;;
58414;SDS011;44210;42.706;18.344;2022-11-20T12:16:07;4.40;;;1.58;;
58414;SDS011;44210;42.706;18.344;2022-11-20T12:18:36;3.83;;;1.40;;
58414;SDS011;44210;42.706;18.344;2022-11-20T12:21:18;3.67;;;1.90;;
58414;SDS011;44210;42.706;18.344;2022-11-20T12:29:23;3.67;;;1.33;;
58414;SDS011;44210;42.706;18.344;2022-11-20T12:48:18;5.20;;;1.90;;
58414;SDS011;44210;42.706;18.344;2022-11-20T12:51:10;5.18;;;1.80;;
58414;SDS011;44210;42.706;18.344;2022-11-20T13:01:45;4.05;;;1.58;;
58414;SDS011;44210;42.706;18.344;2022-11-20T13:06:53;2.92;;;1.17;;
58414;SDS011;44210;42.706;18.344;2022-11-20T13:09:20;4.80;;;1.35;;
58414;SDS011;44210;42.706;18.344;2022-11-20T13:14:36;5.60;;;1.55;;
58414;SDS011;44210;42.706;18.344;2022-11-20T13:17:05;7.07;;;1.50;;
58414;SDS011;44210;42.706;18.344;2022-11-20T13:19:32;7.20;;;1.92;;
58414;SDS011;44210;42.706;18.344;2022-11-20T13:21:58;7.28;;;1.30;;
58414;SDS011;44210;42.706;18.344;2022-11-20T13:24:26;5.88;;;1.40;;
58414;SDS011;44210;42.706;18.344;2022-11-20T13:29:27;6.55;;;1.33;;
58414;SDS011;44210;42.706;18.344;2022-11-20T13:32:05;5.88;;;1.40;;
58414;SDS011;44210;42.706;18.344;2022-11-20T13:34:31;4.88;;;1.63;;
58414;SDS011;44210;42.706;18.344;2022-11-20T13:36:57;9.88;;;1.40;;
58414;SDS011;44210;42.706;18.344;2022-11-20T13:42:02;7.80;;;1.83;;
58414;SDS011;44210;42.706;18.344;2022-11-20T13:44:39;4.60;;;1.40;;
58414;SDS011;44210;42.706;18.344;2022-11-20T13:47:18;3.72;;;1.40;;
58414;SDS011;44210;42.706;18.344;2022-11-20T13:49:46;3.53;;;1.20;;
58414;SDS011;44210;42.706;18.344;2022-11-20T14:00:09;5.45;;;1.27;;
58414;SDS011;44210;42.706;18.344;2022-11-20T14:02:36;8.35;;;1.77;;
58414;SDS011;44210;42.706;18.344;2022-11-20T14:05:03;9.00;;;1.80;;
58414;SDS011;44210;42.706;18.344;2022-11-20T14:07:37;6.13;;;1.42;;
58414;SDS011;44210;42.706;18.344;2022-11-20T14:10:05;10.70;;;4.78;;
58414;SDS011;44210;42.706;18.344;2022-11-20T14:12:32;8.63;;;4.32;;
58414;SDS011;44210;42.706;18.344;2022-11-20T14:14:58;8.75;;;3.40;;
58414;SDS011;44210;42.706;18.344;2022-11-20T14:19:54;3.95;;;1.92;;
58414;SDS011;44210;42.706;18.344;2022-11-20T14:22:22;7.60;;;2.45;;
58414;SDS011;44210;42.706;18.344;2022-11-20T14:24:48;6.88;;;2.65;;
58414;SDS011;44210;42.706;18.344;2022-11-20T14:27:16;6.95;;;2.83;;
58414;SDS011;44210;42.706;18.344;2022-11-20T14:29:42;9.10;;;3.22;;
58414;SDS011;44210;42.706;18.344;2022-11-20T14:32:09;6.38;;;1.90;;
58414;SDS011;44210;42.706;18.344;2022-11-20T14:34:37;5.88;;;1.95;;
58414;SDS011;44210;42.706;18.344;2022-11-20T14:37:05;6.97;;;2.22;;
58414;SDS011;44210;42.706;18.344;2022-11-20T14:39:33;7.50;;;2.30;;
58414;SDS011;44210;42.706;18.344;2022-11-20T14:42:00;6.40;;;2.20;;
58414;SDS011;44210;42.706;18.344;2022-11-20T14:44:27;8.60;;;2.15;;
58414;SDS011;44210;42.706;18.344;2022-11-20T14:46:53;9.98;;;1.85;;
58414;SDS011;44210;42.706;18.344;2022-11-20T14:49:20;5.47;;;1.35;;
58414;SDS011;44210;42.706;18.344;2022-11-20T14:51:47;9.43;;;1.95;;
58414;SDS011;44210;42.706;18.344;2022-11-20T14:54:23;9.68;;;1.95;;
58414;SDS011;44210;42.706;18.344;2022-11-20T14:56:57;6.60;;;1.80;;
58414;SDS011;44210;42.706;18.344;2022-11-20T14:59:28;12.27;;;3.22;;
58414;SDS011;44210;42.706;18.344;2022-11-20T15:01:57;8.55;;;3.13;;
58414;SDS011;44210;42.706;18.344;2022-11-20T15:04:23;13.18;;;3.15;;
58414;SDS011;44210;42.706;18.344;2022-11-20T15:06:50;11.73;;;5.13;;
58414;SDS011;44210;42.706;18.344;2022-11-20T15:09:17;7.70;;;4.60;;
58414;SDS011;44210;42.706;18.344;2022-11-20T15:11:52;8.93;;;4.15;;
58414;SDS011;44210;42.706;18.344;2022-11-20T15:14:18;9.15;;;3.55;;
58414;SDS011;44210;42.706;18.344;2022-11-20T15:16:44;7.13;;;3.25;;
58414;SDS011;44210;42.706;18.344;2022-11-20T15:19:14;7.57;;;3.15;;
58414;SDS011;44210;42.706;18.344;2022-11-20T15:21:42;15.88;;;3.17;;
58414;SDS011;44210;42.706;18.344;2022-11-20T15:24:08;9.30;;;3.33;;
58414;SDS011;44210;42.706;18.344;2022-11-20T15:26:34;6.72;;;2.72;;
58414;SDS011;44210;42.706;18.344;2022-11-20T15:29:01;10.45;;;4.28;;
58414;SDS011;44210;42.706;18.344;2022-11-20T15:31:27;8.40;;;3.20;;
58414;SDS011;44210;42.706;18.344;2022-11-20T15:33:53;10.45;;;3.50;;
58414;SDS011;44210;42.706;18.344;2022-11-20T15:36:19;11.20;;;3.20;;
58414;SDS011;44210;42.706;18.344;2022-11-20T15:38:45;16.05;;;6.35;;
58414;SDS011;44210;42.706;18.344;2022-11-20T15:41:12;13.27;;;6.63;;
58414;SDS011;44210;42.706;18.344;2022-11-20T15:43:38;13.88;;;8.73;;
58414;SDS011;44210;42.706;18.344;2022-11-20T15:46:05;14.07;;;7.95;;
58414;SDS011;44210;42.706;18.344;2022-11-20T15:48:34;19.63;;;12.48;;
58414;SDS011;44210;42.706;18.344;2022-11-20T15:51:03;24.35;;;14.70;;
58414;SDS011;44210;42.706;18.344;2022-11-20T15:53:29;24.58;;;14.95;;
58414;SDS011;44210;42.706;18.344;2022-11-20T15:55:55;18.50;;;12.75;;
58414;SDS011;44210;42.706;18.344;2022-11-20T15:58:21;21.17;;;14.65;;
58414;SDS011;44210;42.706;18.344;2022-11-20T16:00:49;23.60;;;16.35;;
58414;SDS011;44210;42.706;18.344;2022-11-20T16:03:15;21.10;;;16.55;;
58414;SDS011;44210;42.706;18.344;2022-11-20T16:05:42;24.65;;;17.83;;
58414;SDS011;44210;42.706;18.344;2022-11-20T16:08:08;25.02;;;17.98;;
58414;SDS011;44210;42.706;18.344;2022-11-20T16:10:34;26.17;;;19.38;;
58414;SDS011;44210;42.706;18.344;2022-11-20T16:13:01;32.22;;;23.85;;
58414;SDS011;44210;42.706;18.344;2022-11-20T16:15:46;30.02;;;22.48;;
58414;SDS011;44210;42.706;18.344;2022-11-20T16:18:17;29.38;;;22.55;;